Empire State — WDE4431 — position and weather

sailwx.info

Track history (hours):
 
Tides and Currents Weather Stations Pressure Air Temp Water Temp Dewpoint Dewpoint Depression Visibility Wind Speed Wind Dir Waves Ship Positions

Empire State

Owner: Crowley Petroleum Services, Jacksonville, FL. More information available from US FCC via Universal Licensing System and Coast Guard Vessel Documentation Center.

Last reported at 2016-Jul-10 08:33 UTC. Time now 2016-Jul-26 00:42 UTC.
Position N 37°00' W 124°24'.
Warning: this ship's position is 15 days out of date.

Length 183 m; draft 10.8 m.

Type: Military. MMSI: 367353080.

Date/timePositionNaut miles runAvg speedWind from/ knotsBaromVisibWave heightAir tempDewpointWater temp
2016-Jul-10 08:33N 37°00' W 124°24'1714.6
2016-Jul-10 07:21N 37°08' W 124°04'2914.6
2016-Jul-10 05:23N 37°22' W 123°32'1113.5
2016-Jul-10 04:32N 37°27' W 123°19'1111.4
2016-Jul-10 03:34N 37°32' W 123°07'1010.2
2016-Jul-10 02:34N 37°38' W 122°56'1110.8
2016-Jul-10 01:33N 37°44' W 122°45'1110.8
2016-Jul-10 00:33N 37°48' W 122°32'8 8.2
2016-Jul-09 23:34N 37°47' W 122°22'2 1.5
2016-Jul-09 22:31N 37°46' W 122°21'0 0.0
2016-Jul-09 21:31N 37°46' W 122°21'0 0.0
2016-Jul-09 20:31N 37°46' W 122°21'0 0.0
2016-Jul-09 19:31N 37°46' W 122°21'0 0.1
2016-Jul-09 18:31N 37°46' W 122°21'0 0.2
2016-Jul-09 17:28N 37°46' W 122°21'0 0.0
2016-Jul-09 16:31N 37°46' W 122°21'0 0.0
2016-Jul-09 15:31N 37°46' W 122°21'1 0.7
2016-Jul-09 14:33N 37°47' W 122°21'12 9.0
2016-Jul-09 13:14N 37°58' W 122°27'7 9.5
2016-Jul-09 12:32N 38°03' W 122°21'4 3.8
2016-Jul-09 11:32N 38°03' W 122°16'0 0.0
2016-Jul-09 10:32N 38°03' W 122°16'0 0.0
2016-Jul-09 09:32N 38°03' W 122°16'0 0.0
2016-Jul-09 08:32N 38°03' W 122°16'0 0.0
2016-Jul-09 07:26N 38°03' W 122°16'0 0.0
2016-Jul-09 06:32N 38°03' W 122°16'0 0.0
2016-Jul-09 04:32N 38°03' W 122°16'0 0.0
2016-Jul-09 03:32N 38°03' W 122°16'0 0.0
2016-Jul-09 02:32N 38°03' W 122°16'0 0.0
2016-Jul-09 01:32N 38°03' W 122°16'0 0.0
2016-Jul-08 23:32N 38°03' W 122°16'0 0.0
2016-Jul-08 22:32N 38°03' W 122°16'0 0.0
2016-Jul-08 21:14N 38°03' W 122°16'0 0.0
2016-Jul-08 20:32N 38°03' W 122°16'0 0.0
2016-Jul-08 18:32N 38°03' W 122°16'0 0.0
2016-Jul-08 17:32N 38°03' W 122°16'0 0.0
2016-Jul-08 16:32N 38°03' W 122°16'0 0.0
2016-Jul-08 14:15N 38°03' W 122°16'0 0.0
2016-Jul-08 13:21N 38°03' W 122°16'0 0.0
2016-Jul-08 10:33N 38°03' W 122°16'0 0.0
2016-Jul-08 07:15N 38°03' W 122°16'0 0.0
2016-Jul-08 04:09N 38°03' W 122°16'0 0.0
2016-Jul-08 03:27N 38°03' W 122°16'0 0.0
2016-Jul-08 01:33N 38°03' W 122°16'0 0.0
2016-Jul-07 23:33N 38°03' W 122°16'0 0.0
2016-Jul-07 22:21N 38°03' W 122°16'0 0.0
2016-Jul-07 21:27N 38°03' W 122°16'0 0.0
2016-Jul-07 16:33N 38°03' W 122°16'0 0.0
2016-Jul-07 12:15N 38°03' W 122°16'0 0.0
2016-Jul-07 10:27N 38°03' W 122°16'0 0.0
2016-Jul-07 07:21N 38°03' W 122°16'0 0.0
2016-Jul-07 06:33N 38°03' W 122°16'0 0.0
2016-Jul-07 05:33N 38°03' W 122°16'0 0.0
2016-Jul-07 04:33N 38°03' W 122°16'0 0.0
2016-Jul-07 03:33N 38°03' W 122°16'0 0.0
2016-Jul-07 02:33N 38°03' W 122°16'0 0.0
2016-Jul-07 01:27N 38°03' W 122°16'0 0.0
2016-Jul-07 00:27N 38°03' W 122°16'0 0.0
2016-Jul-06 23:21N 38°03' W 122°16'0 0.0
2016-Jul-06 22:21N 38°03' W 122°16'0 0.0
2016-Jul-06 21:27N 38°03' W 122°16'0 0.0
2016-Jul-06 20:33N 38°03' W 122°16'0 0.1
2016-Jul-06 19:33N 38°04' W 122°16'6 6.3
2016-Jul-06 18:33N 38°01' W 122°23'1111.3
2016-Jul-06 17:34N 37°51' W 122°27'1212.4
2016-Jul-06 16:33N 37°45' W 122°41'1010.3
2016-Jul-06 15:34N 37°38' W 122°51'1010.2
2016-Jul-06 14:33N 37°33' W 123°02'1010.3
2016-Jul-06 13:33N 37°28' W 123°13'9 9.0
2016-Jul-06 12:34N 37°25' W 123°24'9 9.3
2016-Jul-06 11:34N 37°32' W 123°33'1110.4
2016-Jul-06 10:28N 37°39' W 123°43'910.4
2016-Jul-06 09:34N 37°45' W 123°52'1010.3
2016-Jul-06 08:34N 37°52' W 124°02'1010.4
2016-Jul-06 07:34N 37°59' W 124°11'1110.7
2016-Jul-06 06:34N 38°08' W 124°19'1010.5
2016-Jul-06 05:34N 38°17' W 124°27'1110.9
2016-Jul-06 04:34N 38°26' W 124°35'1110.7
2016-Jul-06 03:34N 38°35' W 124°43'1110.8
2016-Jul-06 02:33N 38°44' W 124°50'1312.5
2016-Jul-06 01:33N 38°55' W 124°57'1614.7
2016-Jul-06 00:29N 39°09' W 125°06'30914.7
2016-Jul-05 03:32N 44°15' W 126°08'1515.3
2016-Jul-05 02:34N 44°29' W 126°09'1615.5
2016-Jul-05 01:33N 44°45' W 126°09'1515.3
2016-Jul-05 00:33N 45°00' W 126°09'1515.3
2016-Jul-04 23:33N 45°16' W 126°09'1413.9
2016-Jul-04 22:33N 45°29' W 126°03'1414.6
2016-Jul-04 21:34N 45°43' W 126°02'4814.9
2016-Jul-04 18:21N 46°31' W 126°01'1714.9
2016-Jul-04 17:13N 46°48' W 126°02'2514.8
2016-Jul-04 15:32N 47°13' W 126°01'1514.8
2016-Jul-04 14:30N 47°28' W 126°02'3015.1
2016-Jul-04 12:32N 47°58' W 126°02'2713.8
2016-Jul-04 10:33N 48°14' W 125°29'1414.3
2016-Jul-04 09:33N 48°22' W 125°11'1313.0
2016-Jul-04 08:32N 48°31' W 124°56'3113.7
2016-Jul-04 06:17N 48°22' W 124°12'1114.6
2016-Jul-04 05:32N 48°18' W 123°57'1514.7
2016-Jul-04 04:32N 48°15' W 123°35'1111.4
2016-Jul-04 03:33N 48°09' W 123°21'1313.5
2016-Jul-04 02:33N 48°12' W 123°02'1613.0
2016-Jul-04 01:20N 48°07' W 122°39'1013.0
2016-Jul-04 00:33N 47°58' W 122°34'1312.8
2016-Jul-03 23:33N 47°46' W 122°26'1312.6
2016-Jul-03 22:33N 47°34' W 122°30'2 1.7
2016-Jul-03 21:31N 47°34' W 122°32'0 0.0
2016-Jul-03 20:31N 47°34' W 122°32'0 0.0
2016-Jul-03 19:31N 47°34' W 122°32'0 0.0
2016-Jul-03 18:31N 47°34' W 122°32'0 0.0
2016-Jul-03 17:31N 47°34' W 122°32'0 0.0
2016-Jul-03 16:32N 47°34' W 122°32'0 0.0
2016-Jul-03 15:31N 47°34' W 122°32'0 0.0
2016-Jul-03 14:32N 47°34' W 122°32'0 0.0
2016-Jul-03 13:31N 47°34' W 122°32'0 0.0
2016-Jul-03 12:31N 47°34' W 122°32'0 0.0
2016-Jul-03 11:31N 47°34' W 122°32'0 0.0
2016-Jul-03 10:32N 47°34' W 122°32'0 0.0
2016-Jul-03 09:32N 47°34' W 122°32'0 0.0
2016-Jul-03 08:31N 47°34' W 122°32'0 0.0
2016-Jul-03 07:28N 47°34' W 122°32'0 0.0
2016-Jul-03 06:31N 47°34' W 122°32'0 0.0
2016-Jul-03 05:31N 47°34' W 122°32'0 0.0
2016-Jul-03 04:31N 47°34' W 122°32'0 0.0
2016-Jul-03 03:32N 47°34' W 122°32'0 0.0
2016-Jul-03 02:34N 47°34' W 122°32'4 3.7
2016-Jul-03 01:34N 47°36' W 122°28'1212.0
2016-Jul-03 00:34N 47°48' W 122°27'1212.1
2016-Jul-02 23:34N 47°58' W 122°36'1313.1
2016-Jul-02 22:34N 48°10' W 122°46'1515.2
2016-Jul-02 21:33N 48°12' W 123°08'1313.5
2016-Jul-02 20:33N 48°12' W 123°28'1514.6
2016-Jul-02 19:33N 48°13' W 123°50'1615.6
2016-Jul-02 18:33N 48°19' W 124°12'1514.7
2016-Jul-02 17:33N 48°25' W 124°32'1413.4
2016-Jul-02 16:33N 48°29' W 124°52'1313.0
2016-Jul-02 15:33N 48°20' W 125°07'1514.8
2016-Jul-02 14:30N 48°07' W 125°18'1414.4
2016-Jul-02 13:33N 47°55' W 125°27'1211.8
2016-Jul-02 12:33N 47°44' W 125°35'1813.8
2016-Jul-02 11:13N 47°28' W 125°49'1114.2
2016-Jul-02 10:27N 47°18' W 125°57'1214.0
2016-Jul-02 09:33N 47°06' W 126°01'1514.4
2016-Jul-02 08:33N 46°52' W 126°02'6114.3
2016-Jul-02 04:17N 45°51' W 126°01'1214.3
2016-Jul-02 03:29N 45°40' W 126°01'2814.5
2016-Jul-02 01:32N 45°11' W 126°01'1514.5
2016-Jul-02 00:32N 44°57' W 126°01'1414.6
2016-Jul-01 23:33N 44°43' W 126°02'1514.7
2016-Jul-01 22:33N 44°28' W 126°02'1414.6
2016-Jul-01 21:33N 44°13' W 126°01'1514.7
2016-Jul-01 20:33N 43°59' W 126°02'1414.0
2016-Jul-01 19:33N 43°45' W 126°02'1714.1
2016-Jul-01 18:20N 43°27' W 126°01'309 9.4
2016-Jun-30 09:21N 38°26' W 124°34'  
Track history (hours):
 
Tides and Currents Weather Stations Pressure Air Temp Water Temp Dewpoint Dewpoint Depression Visibility Wind Speed Wind Dir Waves Ship Positions

Empire State

Owner: Crowley Petroleum Services, Jacksonville, FL. More information available from US FCC via Universal Licensing System and Coast Guard Vessel Documentation Center.

Last reported at 2016-Jul-10 08:33 UTC. Time now 2016-Jul-26 00:42 UTC.
Position N 37°00' W 124°24'.
Warning: this ship's position is 15 days out of date.

Length 183 m; draft 10.8 m.

Type: Military. MMSI: 367353080.

Date/timePositionNaut miles runAvg speedWind from/ knotsBaromVisibWave heightAir tempDewpointWater temp
2016-Jul-10 08:33N 37°00' W 124°24'1714.6
2016-Jul-10 07:21N 37°08' W 124°04'2914.6
2016-Jul-10 05:23N 37°22' W 123°32'1113.5
2016-Jul-10 04:32N 37°27' W 123°19'1111.4
2016-Jul-10 03:34N 37°32' W 123°07'1010.2
2016-Jul-10 02:34N 37°38' W 122°56'1110.8
2016-Jul-10 01:33N 37°44' W 122°45'1110.8
2016-Jul-10 00:33N 37°48' W 122°32'8 8.2
2016-Jul-09 23:34N 37°47' W 122°22'2 1.5
2016-Jul-09 22:31N 37°46' W 122°21'0 0.0
2016-Jul-09 21:31N 37°46' W 122°21'0 0.0
2016-Jul-09 20:31N 37°46' W 122°21'0 0.0
2016-Jul-09 19:31N 37°46' W 122°21'0 0.1
2016-Jul-09 18:31N 37°46' W 122°21'0 0.2
2016-Jul-09 17:28N 37°46' W 122°21'0 0.0
2016-Jul-09 16:31N 37°46' W 122°21'0 0.0
2016-Jul-09 15:31N 37°46' W 122°21'1 0.7
2016-Jul-09 14:33N 37°47' W 122°21'12 9.0
2016-Jul-09 13:14N 37°58' W 122°27'7 9.5
2016-Jul-09 12:32N 38°03' W 122°21'4 3.8
2016-Jul-09 11:32N 38°03' W 122°16'0 0.0
2016-Jul-09 10:32N 38°03' W 122°16'0 0.0
2016-Jul-09 09:32N 38°03' W 122°16'0 0.0
2016-Jul-09 08:32N 38°03' W 122°16'0 0.0
2016-Jul-09 07:26N 38°03' W 122°16'0 0.0
2016-Jul-09 06:32N 38°03' W 122°16'0 0.0
2016-Jul-09 04:32N 38°03' W 122°16'0 0.0
2016-Jul-09 03:32N 38°03' W 122°16'0 0.0
2016-Jul-09 02:32N 38°03' W 122°16'0 0.0
2016-Jul-09 01:32N 38°03' W 122°16'0 0.0
2016-Jul-08 23:32N 38°03' W 122°16'0 0.0
2016-Jul-08 22:32N 38°03' W 122°16'0 0.0
2016-Jul-08 21:14N 38°03' W 122°16'0 0.0
2016-Jul-08 20:32N 38°03' W 122°16'0 0.0
2016-Jul-08 18:32N 38°03' W 122°16'0 0.0
2016-Jul-08 17:32N 38°03' W 122°16'0 0.0
2016-Jul-08 16:32N 38°03' W 122°16'0 0.0
2016-Jul-08 14:15N 38°03' W 122°16'0 0.0
2016-Jul-08 13:21N 38°03' W 122°16'0 0.0
2016-Jul-08 10:33N 38°03' W 122°16'0 0.0
2016-Jul-08 07:15N 38°03' W 122°16'0 0.0
2016-Jul-08 04:09N 38°03' W 122°16'0 0.0
2016-Jul-08 03:27N 38°03' W 122°16'0 0.0
2016-Jul-08 01:33N 38°03' W 122°16'0 0.0
2016-Jul-07 23:33N 38°03' W 122°16'0 0.0
2016-Jul-07 22:21N 38°03' W 122°16'0 0.0
2016-Jul-07 21:27N 38°03' W 122°16'0 0.0
2016-Jul-07 16:33N 38°03' W 122°16'0 0.0
2016-Jul-07 12:15N 38°03' W 122°16'0 0.0
2016-Jul-07 10:27N 38°03' W 122°16'0 0.0
2016-Jul-07 07:21N 38°03' W 122°16'0 0.0
2016-Jul-07 06:33N 38°03' W 122°16'0 0.0
2016-Jul-07 05:33N 38°03' W 122°16'0 0.0
2016-Jul-07 04:33N 38°03' W 122°16'0 0.0
2016-Jul-07 03:33N 38°03' W 122°16'0 0.0
2016-Jul-07 02:33N 38°03' W 122°16'0 0.0
2016-Jul-07 01:27N 38°03' W 122°16'0 0.0
2016-Jul-07 00:27N 38°03' W 122°16'0 0.0
2016-Jul-06 23:21N 38°03' W 122°16'0 0.0
2016-Jul-06 22:21N 38°03' W 122°16'0 0.0
2016-Jul-06 21:27N 38°03' W 122°16'0 0.0
2016-Jul-06 20:33N 38°03' W 122°16'0 0.1
2016-Jul-06 19:33N 38°04' W 122°16'6 6.3
2016-Jul-06 18:33N 38°01' W 122°23'1111.3
2016-Jul-06 17:34N 37°51' W 122°27'1212.4
2016-Jul-06 16:33N 37°45' W 122°41'1010.3
2016-Jul-06 15:34N 37°38' W 122°51'1010.2
2016-Jul-06 14:33N 37°33' W 123°02'1010.3
2016-Jul-06 13:33N 37°28' W 123°13'9 9.0
2016-Jul-06 12:34N 37°25' W 123°24'9 9.3
2016-Jul-06 11:34N 37°32' W 123°33'1110.4
2016-Jul-06 10:28N 37°39' W 123°43'910.4
2016-Jul-06 09:34N 37°45' W 123°52'1010.3
2016-Jul-06 08:34N 37°52' W 124°02'1010.4
2016-Jul-06 07:34N 37°59' W 124°11'1110.7
2016-Jul-06 06:34N 38°08' W 124°19'1010.5
2016-Jul-06 05:34N 38°17' W 124°27'1110.9
2016-Jul-06 04:34N 38°26' W 124°35'1110.7
2016-Jul-06 03:34N 38°35' W 124°43'1110.8
2016-Jul-06 02:33N 38°44' W 124°50'1312.5
2016-Jul-06 01:33N 38°55' W 124°57'1614.7
2016-Jul-06 00:29N 39°09' W 125°06'30914.7
2016-Jul-05 03:32N 44°15' W 126°08'1515.3
2016-Jul-05 02:34N 44°29' W 126°09'1615.5
2016-Jul-05 01:33N 44°45' W 126°09'1515.3
2016-Jul-05 00:33N 45°00' W 126°09'1515.3
2016-Jul-04 23:33N 45°16' W 126°09'1413.9
2016-Jul-04 22:33N 45°29' W 126°03'1414.6
2016-Jul-04 21:34N 45°43' W 126°02'4814.9
2016-Jul-04 18:21N 46°31' W 126°01'1714.9
2016-Jul-04 17:13N 46°48' W 126°02'2514.8
2016-Jul-04 15:32N 47°13' W 126°01'1514.8
2016-Jul-04 14:30N 47°28' W 126°02'3015.1
2016-Jul-04 12:32N 47°58' W 126°02'2713.8
2016-Jul-04 10:33N 48°14' W 125°29'1414.3
2016-Jul-04 09:33N 48°22' W 125°11'1313.0
2016-Jul-04 08:32N 48°31' W 124°56'3113.7
2016-Jul-04 06:17N 48°22' W 124°12'1114.6
2016-Jul-04 05:32N 48°18' W 123°57'1514.7
2016-Jul-04 04:32N 48°15' W 123°35'1111.4
2016-Jul-04 03:33N 48°09' W 123°21'1313.5
2016-Jul-04 02:33N 48°12' W 123°02'1613.0
2016-Jul-04 01:20N 48°07' W 122°39'1013.0
2016-Jul-04 00:33N 47°58' W 122°34'1312.8
2016-Jul-03 23:33N 47°46' W 122°26'1312.6
2016-Jul-03 22:33N 47°34' W 122°30'2 1.7
2016-Jul-03 21:31N 47°34' W 122°32'0 0.0
2016-Jul-03 20:31N 47°34' W 122°32'0 0.0
2016-Jul-03 19:31N 47°34' W 122°32'0 0.0
2016-Jul-03 18:31N 47°34' W 122°32'0 0.0
2016-Jul-03 17:31N 47°34' W 122°32'0 0.0
2016-Jul-03 16:32N 47°34' W 122°32'0 0.0
2016-Jul-03 15:31N 47°34' W 122°32'0 0.0
2016-Jul-03 14:32N 47°34' W 122°32'0 0.0
2016-Jul-03 13:31N 47°34' W 122°32'0 0.0
2016-Jul-03 12:31N 47°34' W 122°32'0 0.0
2016-Jul-03 11:31N 47°34' W 122°32'0 0.0
2016-Jul-03 10:32N 47°34' W 122°32'0 0.0
2016-Jul-03 09:32N 47°34' W 122°32'0 0.0
2016-Jul-03 08:31N 47°34' W 122°32'0 0.0
2016-Jul-03 07:28N 47°34' W 122°32'0 0.0
2016-Jul-03 06:31N 47°34' W 122°32'0 0.0
2016-Jul-03 05:31N 47°34' W 122°32'0 0.0
2016-Jul-03 04:31N 47°34' W 122°32'0 0.0
2016-Jul-03 03:32N 47°34' W 122°32'0 0.0
2016-Jul-03 02:34N 47°34' W 122°32'4 3.7
2016-Jul-03 01:34N 47°36' W 122°28'1212.0
2016-Jul-03 00:34N 47°48' W 122°27'1212.1
2016-Jul-02 23:34N 47°58' W 122°36'1313.1
2016-Jul-02 22:34N 48°10' W 122°46'1515.2
2016-Jul-02 21:33N 48°12' W 123°08'1313.5
2016-Jul-02 20:33N 48°12' W 123°28'1514.6
2016-Jul-02 19:33N 48°13' W 123°50'1615.6
2016-Jul-02 18:33N 48°19' W 124°12'1514.7
2016-Jul-02 17:33N 48°25' W 124°32'1413.4
2016-Jul-02 16:33N 48°29' W 124°52'1313.0
2016-Jul-02 15:33N 48°20' W 125°07'1514.8
2016-Jul-02 14:30N 48°07' W 125°18'1414.4
2016-Jul-02 13:33N 47°55' W 125°27'1211.8
2016-Jul-02 12:33N 47°44' W 125°35'1813.8
2016-Jul-02 11:13N 47°28' W 125°49'1114.2
2016-Jul-02 10:27N 47°18' W 125°57'1214.0
2016-Jul-02 09:33N 47°06' W 126°01'1514.4
2016-Jul-02 08:33N 46°52' W 126°02'6114.3
2016-Jul-02 04:17N 45°51' W 126°01'1214.3
2016-Jul-02 03:29N 45°40' W 126°01'2814.5
2016-Jul-02 01:32N 45°11' W 126°01'1514.5
2016-Jul-02 00:32N 44°57' W 126°01'1414.6
2016-Jul-01 23:33N 44°43' W 126°02'1514.7
2016-Jul-01 22:33N 44°28' W 126°02'1414.6
2016-Jul-01 21:33N 44°13' W 126°01'1514.7
2016-Jul-01 20:33N 43°59' W 126°02'1414.0
2016-Jul-01 19:33N 43°45' W 126°02'1714.1
2016-Jul-01 18:20N 43°27' W 126°01'309 9.4
2016-Jun-30 09:21N 38°26' W 124°34'  

Dump ship's entire track history